Terminal Aerodrome Forecast
Issued by NWS Cleveland, OH

Home | Current Version | Previous Version | Graphics & Text | Print | Product List | Glossary Off
Versions: 1 2 3 4 5 6 7 8 9 10 11 12 13 14 15 16 17 18 19

573
FTUS41 KCLE 091722
TAFTOL
TAF
KTOL 091722Z 0918/1018 26012KT 2SM -SN SCT006 OVC012
      TEMPO 0918/0920 1SM -SN BR OVC008
     FM092000 29014G22KT 6SM HZ OVC015
      TEMPO 0920/0924 4SM -SHSN OVC008
     FM100000 27012G18KT P6SM OVC025
     FM100800 28012KT 4SM -SN OVC015
     FM101400 29014KT P6SM OVC035=

USA.gov is the U.S. government's official web portal to all federal, state and local government web resources and services.